Time;durP1;ratioP1;P1;durP2;ratioP2;P2;SDS_P1;SDS_P2;PMS_P1;PMS_P2;Temp;Humidity;BMP_temperature;BMP_pressure;BME280_temperature;BME280_humidity;BME280_pressure;Samples;Min_cycle;Max_cycle;Signal;HPM_P1;HPM_P2
2023/09/17 00:00:53;;;;;;;3.65;3.40;;;;;;;;;;5138669;28;20176;-91
2023/09/17 00:03:22;;;;;;;3.00;2.80;;;;;;;;;;5138692;28;20194;-93
2023/09/17 00:05:50;;;;;;;3.95;3.65;;;;;;;;;;5138442;28;20195;-91
2023/09/17 00:08:18;;;;;;;3.08;2.88;;;;;;;;;;5138281;28;20215;-92
2023/09/17 00:10:46;;;;;;;2.60;2.42;;;;;;;;;;5138587;28;20182;-91
2023/09/17 00:13:14;;;;;;;2.63;2.53;;;;;;;;;;5138425;28;20247;-93
2023/09/17 00:15:42;;;;;;;2.97;2.78;;;;;;;;;;5138374;28;20179;-93
2023/09/17 00:18:10;;;;;;;3.30;3.00;;;;;;;;;;5138326;28;20200;-93
2023/09/17 00:20:39;;;;;;;3.38;3.17;;;;;;;;;;5138154;27;20213;-93
2023/09/17 00:23:06;;;;;;;3.35;3.05;;;;;;;;;;5142514;28;20239;-93
2023/09/17 00:25:34;;;;;;;2.70;2.50;;;;;;;;;;5142650;28;20176;-92
2023/09/17 00:28:02;;;;;;;3.33;2.60;;;;;;;;;;5142371;28;20191;-92
2023/09/17 00:30:30;;;;;;;2.80;2.60;;;;;;;;;;5142624;28;20209;-94
2023/09/17 00:32:57;;;;;;;3.35;3.05;;;;;;;;;;5142531;27;20184;-91
2023/09/17 00:35:25;;;;;;;3.50;3.30;;;;;;;;;;5142529;28;20183;-94
2023/09/17 00:37:54;;;;;;;3.88;3.50;;;;;;;;;;5142045;28;20196;-93
2023/09/17 00:40:23;;;;;;;3.53;3.22;;;;;;;;;;5142421;28;20202;-91
2023/09/17 00:42:51;;;;;;;4.82;4.43;;;;;;;;;;5142332;28;20204;-93
2023/09/17 00:45:18;;;;;;;3.70;3.40;;;;;;;;;;5142233;28;20176;-92
2023/09/17 00:47:46;;;;;;;4.65;3.40;;;;;;;;;;5142046;28;20183;-92
2023/09/17 00:50:14;;;;;;;4.78;4.47;;;;;;;;;;5142177;28;20187;-93
2023/09/17 00:52:42;;;;;;;3.83;3.58;;;;;;;;;;5141886;28;20176;-92
2023/09/17 00:55:11;;;;;;;4.13;3.78;;;;;;;;;;5142084;27;20176;-93
2023/09/17 00:57:40;;;;;;;3.75;3.45;;;;;;;;;;5141633;27;20195;-92
2023/09/17 01:00:09;;;;;;;3.40;3.10;;;;;;;;;;5141941;27;20180;-92
2023/09/17 01:02:37;;;;;;;3.88;3.30;;;;;;;;;;5141994;27;20203;-93
2023/09/17 01:05:06;;;;;;;4.78;4.28;;;;;;;;;;5141819;27;20184;-94
2023/09/17 01:07:35;;;;;;;4.28;3.97;;;;;;;;;;5141736;27;20188;-92
2023/09/17 01:10:04;;;;;;;4.60;4.20;;;;;;;;;;5141769;27;20215;-94
2023/09/17 01:12:33;;;;;;;3.83;3.53;;;;;;;;;;5141539;27;20168;-95
2023/09/17 01:15:02;;;;;;;3.92;3.63;;;;;;;;;;5141695;28;20255;-93
2023/09/17 01:17:30;;;;;;;4.28;3.90;;;;;;;;;;5141541;27;20202;-94
2023/09/17 01:19:59;;;;;;;3.88;3.55;;;;;;;;;;5141487;27;20214;-93
2023/09/17 01:22:36;;;;;;;3.85;3.17;;;;;;;;;;5141076;27;20251;-93
2023/09/17 01:25:11;;;;;;;3.08;2.88;;;;;;;;;;5141418;28;20187;-93
2023/09/17 01:27:41;;;;;;;3.70;3.40;;;;;;;;;;5141270;28;20179;-94
2023/09/17 01:30:15;;;;;;;4.28;2.97;;;;;;;;;;5141499;28;20195;-93
2023/09/17 01:32:43;;;;;;;3.10;2.83;;;;;;;;;;5140560;28;20187;-94
2023/09/17 01:35:11;;;;;;;2.55;2.35;;;;;;;;;;5141306;28;20186;-93
2023/09/17 01:37:43;;;;;;;2.50;2.30;;;;;;;;;;5141026;27;20191;-94
2023/09/17 01:40:12;;;;;;;2.95;2.75;;;;;;;;;;5141313;28;20179;-93
2023/09/17 01:42:45;;;;;;;3.00;2.78;;;;;;;;;;5141181;28;20179;-95
2023/09/17 01:45:13;;;;;;;3.05;2.85;;;;;;;;;;5141193;28;20272;-94
2023/09/17 01:47:42;;;;;;;2.72;2.53;;;;;;;;;;5140869;28;20190;-93
2023/09/17 01:50:12;;;;;;;2.97;2.78;;;;;;;;;;5141021;28;20180;-94
2023/09/17 01:52:40;;;;;;;2.67;2.47;;;;;;;;;;5140636;27;20182;-93
2023/09/17 01:55:09;;;;;;;3.53;3.22;;;;;;;;;;5140838;27;20217;-93
2023/09/17 01:57:37;;;;;;;2.40;2.20;;;;;;;;;;5140629;28;20259;-94
2023/09/17 02:00:14;;;;;;;2.65;2.42;;;;;;;;;;5140905;28;20168;-93
2023/09/17 02:02:46;;;;;;;2.30;2.13;;;;;;;;;;5140872;28;20187;-93
2023/09/17 02:05:16;;;;;;;2.25;2.10;;;;;;;;;;5140694;28;20195;-94
2023/09/17 02:07:44;;;;;;;2.70;2.50;;;;;;;;;;5140472;28;20194;-94
2023/09/17 02:10:11;;;;;;;2.95;2.75;;;;;;;;;;5140618;28;20239;-94
2023/09/17 02:12:39;;;;;;;2.28;2.10;;;;;;;;;;5140523;28;20237;-94
2023/09/17 02:15:10;;;;;;;2.63;2.42;;;;;;;;;;5140572;28;20184;-94
2023/09/17 02:17:38;;;;;;;2.85;2.65;;;;;;;;;;5140401;28;20219;-94
2023/09/17 02:20:10;;;;;;;2.28;2.08;;;;;;;;;;5140383;28;20190;-93
2023/09/17 02:22:38;;;;;;;2.70;2.50;;;;;;;;;;5140223;27;20211;-94
2023/09/17 02:25:07;;;;;;;2.88;2.60;;;;;;;;;;5140251;27;20183;-94
2023/09/17 02:27:35;;;;;;;3.00;2.80;;;;;;;;;;5140234;27;20179;-95
2023/09/17 02:30:04;;;;;;;2.95;2.75;;;;;;;;;;5140115;28;20204;-93
2023/09/17 02:32:33;;;;;;;2.40;2.30;;;;;;;;;;5140264;27;20199;-92
2023/09/17 02:35:01;;;;;;;2.47;2.28;;;;;;;;;;5140156;27;20176;-95
2023/09/17 02:37:29;;;;;;;2.30;2.10;;;;;;;;;;5139961;27;20199;-93
2023/09/17 02:39:57;;;;;;;2.95;2.75;;;;;;;;;;5139903;27;20191;-93
2023/09/17 02:42:25;;;;;;;2.05;1.95;;;;;;;;;;5139934;28;20184;-94
2023/09/17 02:44:53;;;;;;;1.85;1.75;;;;;;;;;;5138886;27;20252;-93
2023/09/17 02:47:21;;;;;;;2.10;2.00;;;;;;;;;;5139801;27;20186;-93
2023/09/17 02:49:50;;;;;;;2.67;2.47;;;;;;;;;;5139604;27;20332;-93
2023/09/17 02:52:17;;;;;;;1.95;1.85;;;;;;;;;;5139573;27;20183;-94
2023/09/17 02:54:45;;;;;;;2.83;2.63;;;;;;;;;;5139715;27;20203;-92
2023/09/17 02:57:13;;;;;;;2.50;2.33;;;;;;;;;;5139502;27;20179;-93
2023/09/17 02:59:41;;;;;;;1.90;1.80;;;;;;;;;;5139385;27;20188;-93
2023/09/17 03:02:09;;;;;;;1.90;1.80;;;;;;;;;;5139794;28;20189;-95
2023/09/17 03:04:37;;;;;;;2.10;2.00;;;;;;;;;;5133178;27;20233;-95
2023/09/17 03:07:06;;;;;;;2.00;1.90;;;;;;;;;;5129374;27;20217;-94
2023/09/17 03:09:34;;;;;;;2.42;2.25;;;;;;;;;;5129385;28;20234;-94
2023/09/17 03:12:01;;;;;;;2.22;2.10;;;;;;;;;;5129586;27;20194;-93
2023/09/17 03:14:29;;;;;;;2.03;1.92;;;;;;;;;;5129713;28;20188;-96
2023/09/17 03:16:56;;;;;;;2.13;2.03;;;;;;;;;;5129821;28;20187;-93
2023/09/17 03:19:24;;;;;;;2.70;2.50;;;;;;;;;;5129226;28;20228;-94
2023/09/17 03:21:53;;;;;;;2.00;1.90;;;;;;;;;;5129619;27;20199;-95
2023/09/17 03:24:22;;;;;;;2.10;2.00;;;;;;;;;;5129352;28;20218;-92
2023/09/17 03:26:50;;;;;;;2.15;2.00;;;;;;;;;;5129647;27;20191;-93
2023/09/17 03:29:17;;;;;;;2.58;2.38;;;;;;;;;;5129117;27;20233;-94
2023/09/17 03:31:45;;;;;;;2.75;2.55;;;;;;;;;;5129828;28;20187;-92
2023/09/17 03:34:13;;;;;;;2.85;2.63;;;;;;;;;;5129663;28;20622;-93
2023/09/17 03:36:40;;;;;;;2.63;2.42;;;;;;;;;;5129292;27;20187;-94
2023/09/17 03:39:08;;;;;;;2.60;2.40;;;;;;;;;;5129652;28;20231;-94
2023/09/17 03:41:40;;;;;;;1.98;1.88;;;;;;;;;;5130766;28;20210;-96
2023/09/17 03:44:09;;;;;;;2.22;2.10;;;;;;;;;;5130338;28;20203;-93
2023/09/17 03:46:37;;;;;;;2.15;2.03;;;;;;;;;;5130276;27;20190;-93
2023/09/17 03:49:05;;;;;;;2.53;2.33;;;;;;;;;;5129312;28;20315;-95
2023/09/17 03:51:33;;;;;;;2.70;2.50;;;;;;;;;;5129004;28;20187;-93
2023/09/17 03:54:01;;;;;;;2.10;2.00;;;;;;;;;;5128788;28;20184;-94
2023/09/17 03:56:29;;;;;;;3.42;3.13;;;;;;;;;;5128679;27;20202;-93
2023/09/17 03:58:58;;;;;;;2.75;2.55;;;;;;;;;;5128635;28;20270;-93
2023/09/17 04:01:26;;;;;;;2.80;2.60;;;;;;;;;;5128712;28;20218;-95
2023/09/17 04:03:53;;;;;;;2.53;2.33;;;;;;;;;;5128605;27;20198;-93
2023/09/17 04:06:22;;;;;;;2.38;2.20;;;;;;;;;;5129052;28;20192;-94
2023/09/17 04:08:50;;;;;;;2.45;2.35;;;;;;;;;;5128962;28;20218;-93
2023/09/17 04:11:17;;;;;;;2.53;2.35;;;;;;;;;;5128876;27;20199;-94
2023/09/17 04:13:45;;;;;;;2.45;2.25;;;;;;;;;;5128700;28;20236;-93
2023/09/17 04:16:16;;;;;;;2.30;2.10;;;;;;;;;;5128933;27;20211;-93
2023/09/17 04:18:43;;;;;;;2.35;2.25;;;;;;;;;;5128335;28;20245;-94
2023/09/17 04:21:11;;;;;;;2.45;2.28;;;;;;;;;;5128523;28;20187;-95
2023/09/17 04:23:38;;;;;;;2.72;2.53;;;;;;;;;;5128247;28;20192;-95
2023/09/17 04:26:06;;;;;;;2.50;2.30;;;;;;;;;;5128819;27;20187;-94
2023/09/17 04:28:34;;;;;;;2.80;2.60;;;;;;;;;;5128678;28;20223;-93
2023/09/17 04:31:01;;;;;;;2.30;2.20;;;;;;;;;;5128481;27;20199;-93
2023/09/17 04:33:30;;;;;;;2.17;2.08;;;;;;;;;;5128333;28;20198;-92
2023/09/17 04:35:58;;;;;;;2.55;2.35;;;;;;;;;;5128145;28;20195;-94
2023/09/17 04:38:27;;;;;;;3.00;2.80;;;;;;;;;;5128289;28;20204;-94
2023/09/17 04:40:54;;;;;;;2.55;2.35;;;;;;;;;;5128590;28;20184;-92
2023/09/17 04:43:23;;;;;;;2.25;2.15;;;;;;;;;;5128833;28;20199;-92
2023/09/17 04:45:51;;;;;;;2.50;2.30;;;;;;;;;;5128506;27;20226;-93
2023/09/17 04:48:18;;;;;;;2.78;2.58;;;;;;;;;;5128199;28;20208;-94
2023/09/17 04:50:48;;;;;;;2.97;2.78;;;;;;;;;;5128559;28;20202;-93
2023/09/17 04:53:16;;;;;;;2.25;2.15;;;;;;;;;;5128466;28;20203;-93
2023/09/17 04:55:44;;;;;;;1.70;1.60;;;;;;;;;;5128190;28;20310;-94
2023/09/17 04:58:14;;;;;;;2.38;2.17;;;;;;;;;;5128287;28;20237;-93
2023/09/17 05:00:41;;;;;;;2.45;2.25;;;;;;;;;;5128207;28;20242;-94
2023/09/17 05:03:10;;;;;;;2.90;2.70;;;;;;;;;;5128074;28;20212;-93
2023/09/17 05:05:38;;;;;;;2.78;2.58;;;;;;;;;;5134196;27;20196;-94
2023/09/17 05:08:07;;;;;;;2.92;2.72;;;;;;;;;;5137671;28;20196;-93
2023/09/17 05:10:35;;;;;;;3.58;3.28;;;;;;;;;;5141657;27;20188;-93
2023/09/17 05:13:02;;;;;;;3.92;3.63;;;;;;;;;;5141768;28;20200;-93
2023/09/17 05:15:30;;;;;;;3.40;3.13;;;;;;;;;;5141823;28;20176;-94
2023/09/17 05:17:57;;;;;;;3.10;2.90;;;;;;;;;;5141417;27;20179;-94
2023/09/17 05:20:25;;;;;;;2.78;2.58;;;;;;;;;;5141279;28;20212;-94
2023/09/17 05:22:53;;;;;;;3.17;2.97;;;;;;;;;;5140207;27;20183;-94
2023/09/17 05:25:22;;;;;;;3.95;3.65;;;;;;;;;;5141364;28;20242;-94
2023/09/17 05:27:49;;;;;;;4.03;3.72;;;;;;;;;;5141026;27;20188;-95
2023/09/17 05:30:17;;;;;;;3.88;3.58;;;;;;;;;;5141402;28;20180;-94
2023/09/17 05:32:45;;;;;;;4.20;3.25;;;;;;;;;;5141353;27;20213;-94
2023/09/17 05:35:13;;;;;;;3.13;2.92;;;;;;;;;;5141398;28;20176;-92
2023/09/17 05:37:40;;;;;;;2.67;2.47;;;;;;;;;;5141051;27;20179;-93
2023/09/17 05:40:10;;;;;;;2.72;2.53;;;;;;;;;;5141200;27;20217;-94
2023/09/17 05:42:39;;;;;;;3.25;3.00;;;;;;;;;;5141240;27;20183;-94
2023/09/17 05:45:08;;;;;;;2.70;2.50;;;;;;;;;;5141070;27;20179;-94
2023/09/17 05:47:36;;;;;;;2.38;2.28;;;;;;;;;;5140855;27;20184;-93
2023/09/17 05:50:03;;;;;;;3.00;2.80;;;;;;;;;;5140966;27;20211;-93
2023/09/17 05:52:31;;;;;;;2.88;2.67;;;;;;;;;;5140774;27;20188;-94
2023/09/17 05:55:00;;;;;;;2.50;2.30;;;;;;;;;;5140786;27;20177;-93
2023/09/17 05:57:28;;;;;;;2.78;2.58;;;;;;;;;;5140810;27;20199;-93
2023/09/17 05:59:58;;;;;;;2.45;2.28;;;;;;;;;;5140633;27;20223;-92
2023/09/17 06:02:26;;;;;;;2.05;1.95;;;;;;;;;;5140820;27;20207;-93
2023/09/17 06:04:54;;;;;;;1.92;1.83;;;;;;;;;;5140705;27;20188;-94
2023/09/17 06:07:21;;;;;;;2.13;2.03;;;;;;;;;;5140710;27;20184;-94
2023/09/17 06:09:49;;;;;;;2.42;2.22;;;;;;;;;;5140572;27;20187;-94
2023/09/17 06:12:17;;;;;;;2.47;2.28;;;;;;;;;;5140533;28;20183;-95
2023/09/17 06:14:44;;;;;;;3.13;2.90;;;;;;;;;;5140547;28;20187;-93
2023/09/17 06:17:13;;;;;;;2.33;2.22;;;;;;;;;;5140535;27;20180;-93
2023/09/17 06:19:41;;;;;;;1.90;1.80;;;;;;;;;;5139938;28;20207;-94
2023/09/17 06:22:09;;;;;;;1.67;1.58;;;;;;;;;;5140025;27;20215;-93
2023/09/17 06:24:36;;;;;;;2.00;1.90;;;;;;;;;;5140208;28;20192;-93
2023/09/17 06:27:05;;;;;;;2.28;2.17;;;;;;;;;;5140454;28;20193;-93
2023/09/17 06:29:32;;;;;;;2.42;2.17;;;;;;;;;;5139997;28;20192;-94
2023/09/17 06:32:00;;;;;;;2.20;2.00;;;;;;;;;;5140249;28;20195;-93
2023/09/17 06:34:29;;;;;;;2.15;2.05;;;;;;;;;;5140275;28;20183;-93
2023/09/17 06:36:56;;;;;;;3.00;2.80;;;;;;;;;;5140151;28;20183;-94
2023/09/17 06:39:24;;;;;;;3.05;2.85;;;;;;;;;;5139719;28;20207;-94
2023/09/17 06:41:52;;;;;;;2.90;2.70;;;;;;;;;;5140049;28;20204;-94
2023/09/17 06:44:19;;;;;;;3.10;2.90;;;;;;;;;;5140075;28;20180;-93
2023/09/17 06:46:47;;;;;;;4.28;3.35;;;;;;;;;;5140159;28;20188;-93
2023/09/17 06:49:15;;;;;;;3.78;3.47;;;;;;;;;;5139667;28;20208;-93
2023/09/17 06:51:44;;;;;;;2.83;2.60;;;;;;;;;;5139644;27;20199;-93
2023/09/17 06:54:11;;;;;;;3.13;2.92;;;;;;;;;;5139685;27;20183;-94
2023/09/17 06:56:39;;;;;;;2.97;2.78;;;;;;;;;;5139815;27;20207;-93
2023/09/17 06:59:07;;;;;;;3.60;3.33;;;;;;;;;;5139410;28;20225;-92
2023/09/17 07:01:35;;;;;;;3.30;3.10;;;;;;;;;;5139560;28;20210;-92
2023/09/17 07:04:02;;;;;;;2.85;2.65;;;;;;;;;;5139369;28;20201;-93
2023/09/17 07:06:30;;;;;;;2.95;2.45;;;;;;;;;;5139566;27;20188;-92
2023/09/17 07:08:59;;;;;;;2.88;2.67;;;;;;;;;;5139225;27;20207;-93
2023/09/17 07:11:26;;;;;;;3.40;3.13;;;;;;;;;;5139484;27;20187;-93
2023/09/17 07:13:55;;;;;;;4.15;3.08;;;;;;;;;;5139477;27;20183;-92
2023/09/17 07:16:24;;;;;;;3.45;3.17;;;;;;;;;;5139283;27;20214;-93
2023/09/17 07:18:52;;;;;;;3.90;3.60;;;;;;;;;;5139076;27;20207;-93
2023/09/17 07:21:20;;;;;;;3.55;3.08;;;;;;;;;;5138671;27;20211;-92
2023/09/17 07:23:50;;;;;;;3.53;3.00;;;;;;;;;;5139153;28;20196;-93
2023/09/17 07:26:20;;;;;;;3.38;2.92;;;;;;;;;;5139164;28;20222;-94
2023/09/17 07:28:47;;;;;;;3.53;3.33;;;;;;;;;;5138699;28;20272;-93
2023/09/17 07:31:15;;;;;;;3.15;2.85;;;;;;;;;;5138471;28;20191;-94
2023/09/17 07:33:44;;;;;;;3.97;3.67;;;;;;;;;;5139159;28;20190;-94
2023/09/17 07:36:13;;;;;;;3.33;3.13;;;;;;;;;;5139078;27;20222;-93
2023/09/17 07:38:41;;;;;;;3.67;3.38;;;;;;;;;;5138693;28;20200;-94
2023/09/17 07:41:09;;;;;;;3.67;3.38;;;;;;;;;;5138766;28;20217;-91
2023/09/17 07:43:38;;;;;;;3.67;3.38;;;;;;;;;;5139013;28;20191;-94
2023/09/17 07:46:06;;;;;;;4.93;4.53;;;;;;;;;;5138859;28;20205;-92
2023/09/17 07:48:34;;;;;;;4.13;3.83;;;;;;;;;;5138604;27;20252;-93
2023/09/17 07:51:04;;;;;;;3.72;3.50;;;;;;;;;;5138712;27;20191;-93
2023/09/17 07:53:32;;;;;;;5.00;4.60;;;;;;;;;;5138443;27;20203;-93
2023/09/17 07:56:00;;;;;;;4.20;3.70;;;;;;;;;;5138709;28;20201;-93
2023/09/17 07:58:28;;;;;;;4.30;4.00;;;;;;;;;;5138489;28;20204;-94
2023/09/17 08:00:57;;;;;;;4.82;4.18;;;;;;;;;;5138635;27;20191;-93
2023/09/17 08:03:24;;;;;;;3.70;3.40;;;;;;;;;;5138567;28;20180;-93
2023/09/17 08:05:52;;;;;;;3.75;3.45;;;;;;;;;;5138614;28;20207;-93
2023/09/17 08:08:20;;;;;;;3.50;3.30;;;;;;;;;;5138072;27;20249;-93
2023/09/17 08:10:47;;;;;;;4.40;4.00;;;;;;;;;;5138587;27;20199;-92
2023/09/17 08:13:16;;;;;;;3.58;3.28;;;;;;;;;;5138471;27;20184;-92
2023/09/17 08:15:44;;;;;;;2.92;2.72;;;;;;;;;;5138089;28;20249;-93
2023/09/17 08:18:13;;;;;;;3.08;2.88;;;;;;;;;;5138175;27;20208;-93
2023/09/17 08:20:41;;;;;;;3.13;2.92;;;;;;;;;;5137824;28;20208;-93
2023/09/17 08:23:09;;;;;;;3.17;2.47;;;;;;;;;;5137251;27;20253;-93
2023/09/17 08:25:37;;;;;;;2.20;2.10;;;;;;;;;;5138044;28;20206;-92
2023/09/17 08:28:06;;;;;;;2.92;2.72;;;;;;;;;;5137709;28;20207;-91
2023/09/17 08:30:34;;;;;;;2.97;2.63;;;;;;;;;;5138308;28;20247;-93
2023/09/17 08:33:01;;;;;;;2.88;2.67;;;;;;;;;;5138302;28;20191;-93
2023/09/17 08:35:30;;;;;;;2.10;2.00;;;;;;;;;;5138410;28;20213;-92
2023/09/17 08:37:58;;;;;;;3.08;2.88;;;;;;;;;;5138116;28;20222;-92
2023/09/17 08:40:29;;;;;;;3.58;3.38;;;;;;;;;;5138197;28;20186;-93
2023/09/17 08:42:57;;;;;;;2.58;2.42;;;;;;;;;;5140268;28;20207;-92
2023/09/17 08:45:25;;;;;;;1.92;1.83;;;;;;;;;;5142295;28;20183;-92
2023/09/17 08:47:53;;;;;;;2.90;2.70;;;;;;;;;;5142001;28;20488;-92
2023/09/17 08:50:21;;;;;;;2.75;2.55;;;;;;;;;;5142252;28;20191;-95
2023/09/17 08:52:54;;;;;;;3.33;3.10;;;;;;;;;;5141954;28;20198;-95
2023/09/17 08:55:23;;;;;;;3.15;2.95;;;;;;;;;;5142195;28;20187;-92
2023/09/17 08:57:58;;;;;;;3.25;3.05;;;;;;;;;;5141353;28;20199;-93
2023/09/17 09:00:26;;;;;;;3.20;3.00;;;;;;;;;;5141599;28;20187;-94
2023/09/17 09:02:57;;;;;;;3.40;3.15;;;;;;;;;;5140983;28;20241;-91
2023/09/17 09:05:25;;;;;;;3.00;2.80;;;;;;;;;;5141648;28;20259;-92
2023/09/17 09:07:56;;;;;;;3.10;2.90;;;;;;;;;;5140993;28;20179;-94
2023/09/17 09:10:25;;;;;;;3.08;2.88;;;;;;;;;;5141940;28;20184;-93
2023/09/17 09:12:52;;;;;;;3.00;2.80;;;;;;;;;;5141477;28;20247;-92
2023/09/17 09:15:20;;;;;;;3.10;2.90;;;;;;;;;;5140380;28;20199;-92
2023/09/17 09:17:48;;;;;;;4.57;3.35;;;;;;;;;;5138492;28;20195;-94
2023/09/17 09:20:16;;;;;;;3.60;3.33;;;;;;;;;;5140463;28;20199;-93
2023/09/17 09:22:45;;;;;;;3.25;3.05;;;;;;;;;;5141180;27;20211;-93
2023/09/17 09:25:18;;;;;;;3.10;2.90;;;;;;;;;;5141209;28;20192;-93
2023/09/17 09:27:46;;;;;;;3.90;3.60;;;;;;;;;;5141248;27;20203;-92
2023/09/17 09:30:15;;;;;;;3.58;3.28;;;;;;;;;;5141501;27;20187;-92
2023/09/17 09:32:43;;;;;;;3.85;3.58;;;;;;;;;;5141306;27;20179;-93
2023/09/17 09:35:11;;;;;;;2.92;2.72;;;;;;;;;;5140867;28;20210;-93
2023/09/17 09:37:39;;;;;;;3.15;2.95;;;;;;;;;;5141098;27;20199;-94
2023/09/17 09:40:09;;;;;;;3.13;2.92;;;;;;;;;;5141272;27;20191;-93
2023/09/17 09:42:37;;;;;;;3.65;3.30;;;;;;;;;;5141127;28;20204;-92
2023/09/17 09:45:09;;;;;;;3.05;2.85;;;;;;;;;;5141120;27;20206;-94
2023/09/17 09:47:39;;;;;;;4.20;3.80;;;;;;;;;;5140750;27;20188;-92
2023/09/17 09:50:08;;;;;;;3.33;3.13;;;;;;;;;;5141014;27;20211;-92
2023/09/17 09:52:37;;;;;;;4.03;3.40;;;;;;;;;;5140672;28;20190;-93
2023/09/17 09:55:08;;;;;;;3.47;3.17;;;;;;;;;;5140352;28;20187;-92
2023/09/17 09:57:37;;;;;;;3.80;3.60;;;;;;;;;;5140819;28;20184;-94
2023/09/17 10:00:11;;;;;;;3.42;3.22;;;;;;;;;;5140786;28;20203;-93
2023/09/17 10:02:39;;;;;;;4.43;3.33;;;;;;;;;;5140945;28;20220;-93
2023/09/17 10:05:07;;;;;;;3.65;3.35;;;;;;;;;;5140741;28;20211;-93
2023/09/17 10:07:35;;;;;;;2.92;2.72;;;;;;;;;;5140622;27;20198;-91
2023/09/17 10:10:03;;;;;;;3.35;3.05;;;;;;;;;;5140488;28;20207;-91
2023/09/17 10:12:30;;;;;;;2.97;2.78;;;;;;;;;;5140323;28;20184;-93
2023/09/17 10:14:59;;;;;;;3.10;2.90;;;;;;;;;;5140677;28;20195;-91
2023/09/17 10:17:27;;;;;;;3.72;3.22;;;;;;;;;;5140392;28;20263;-93
2023/09/17 10:19:55;;;;;;;3.67;3.38;;;;;;;;;;5140211;28;20203;-93
2023/09/17 10:22:23;;;;;;;4.10;3.17;;;;;;;;;;5138698;28;20219;-93
2023/09/17 10:24:52;;;;;;;3.13;2.92;;;;;;;;;;5139971;28;20192;-93
2023/09/17 10:27:21;;;;;;;2.70;2.50;;;;;;;;;;5139906;28;20179;-93
2023/09/17 10:29:50;;;;;;;3.10;2.80;;;;;;;;;;5140136;28;20191;-92
2023/09/17 10:32:21;;;;;;;4.63;4.15;;;;;;;;;;5140381;28;20176;-92
2023/09/17 10:34:49;;;;;;;3.65;3.28;;;;;;;;;;5139998;28;20200;-93
2023/09/17 10:37:18;;;;;;;2.72;2.35;;;;;;;;;;5139555;28;20281;-93
2023/09/17 10:39:46;;;;;;;3.13;2.90;;;;;;;;;;5139974;28;20220;-93
2023/09/17 10:42:13;;;;;;;3.03;2.83;;;;;;;;;;5139949;27;20243;-94
2023/09/17 10:44:42;;;;;;;3.13;2.88;;;;;;;;;;5139898;27;20196;-93
2023/09/17 10:47:12;;;;;;;3.33;2.47;;;;;;;;;;5139231;28;20206;-92
2023/09/17 10:49:42;;;;;;;2.80;2.60;;;;;;;;;;5138906;28;20203;-92
2023/09/17 10:52:10;;;;;;;2.83;2.50;;;;;;;;;;5139791;27;20199;-94
2023/09/17 10:54:38;;;;;;;3.40;3.20;;;;;;;;;;5139606;27;20184;-94
2023/09/17 10:57:11;;;;;;;2.97;2.78;;;;;;;;;;5139572;27;20183;-91
2023/09/17 10:59:39;;;;;;;3.58;3.08;;;;;;;;;;5139324;27;20207;-92
2023/09/17 11:02:08;;;;;;;3.15;2.95;;;;;;;;;;5139566;27;20203;-93
2023/09/17 11:04:36;;;;;;;2.95;2.75;;;;;;;;;;5139598;28;20203;-92
2023/09/17 11:07:07;;;;;;;3.53;2.95;;;;;;;;;;5138473;28;20183;-91
2023/09/17 11:09:34;;;;;;;2.53;2.38;;;;;;;;;;5139295;27;20215;-92
2023/09/17 11:12:03;;;;;;;2.65;2.45;;;;;;;;;;5139490;27;20202;-92
2023/09/17 11:14:31;;;;;;;3.40;3.13;;;;;;;;;;5139280;27;20184;-92
2023/09/17 11:17:00;;;;;;;3.67;3.38;;;;;;;;;;5139276;27;20183;-92
2023/09/17 11:19:28;;;;;;;3.20;3.00;;;;;;;;;;5138975;27;20203;-92
2023/09/17 11:22:13;;;;;;;3.45;3.15;;;;;;;;;;5138879;27;20188;-94
2023/09/17 11:24:41;;;;;;;3.13;2.83;;;;;;;;;;5138797;27;20183;-92
2023/09/17 11:27:11;;;;;;;3.38;2.65;;;;;;;;;;5139173;27;20187;-92
2023/09/17 11:29:40;;;;;;;3.45;3.05;;;;;;;;;;5138923;28;20199;-93
2023/09/17 11:32:09;;;;;;;3.42;3.13;;;;;;;;;;5139053;27;20179;-91
2023/09/17 11:34:38;;;;;;;3.30;3.00;;;;;;;;;;5138265;27;20196;-92
2023/09/17 11:37:07;;;;;;;2.88;2.67;;;;;;;;;;5127017;27;20278;-92
2023/09/17 11:39:37;;;;;;;2.45;2.35;;;;;;;;;;5119785;27;20219;-92
2023/09/17 11:42:08;;;;;;;4.57;3.03;;;;;;;;;;5124133;28;20187;-93
2023/09/17 11:44:37;;;;;;;3.13;2.85;;;;;;;;;;5120118;28;20219;-93
2023/09/17 11:47:06;;;;;;;3.25;2.92;;;;;;;;;;5130455;27;20209;-93
2023/09/17 11:49:33;;;;;;;2.75;2.55;;;;;;;;;;5121572;27;20310;-93
2023/09/17 11:52:01;;;;;;;3.53;3.22;;;;;;;;;;5123435;27;20210;-93
2023/09/17 11:54:33;;;;;;;3.40;3.10;;;;;;;;;;5127396;28;20203;-93
2023/09/17 11:57:02;;;;;;;3.13;2.92;;;;;;;;;;5124151;28;20215;-93
2023/09/17 11:59:39;;;;;;;2.95;2.75;;;;;;;;;;5121799;28;20219;-92
2023/09/17 12:02:07;;;;;;;3.00;2.70;;;;;;;;;;5119230;28;20255;-93
2023/09/17 12:04:36;;;;;;;3.00;2.80;;;;;;;;;;5115561;28;20223;-93
2023/09/17 12:07:11;;;;;;;2.92;2.72;;;;;;;;;;5120409;28;20230;-93
2023/09/17 12:09:48;;;;;;;3.05;2.70;;;;;;;;;;5120144;28;20279;-93
2023/09/17 12:12:21;;;;;;;3.13;2.92;;;;;;;;;;5124819;28;20206;-93
2023/09/17 12:14:49;;;;;;;2.67;2.47;;;;;;;;;;5123219;28;20230;-93
2023/09/17 12:17:17;;;;;;;3.15;2.95;;;;;;;;;;5120765;28;20204;-92
2023/09/17 12:19:46;;;;;;;2.38;2.28;;;;;;;;;;5116853;28;20212;-93
2023/09/17 12:22:13;;;;;;;2.70;2.50;;;;;;;;;;5115872;28;20247;-92
2023/09/17 12:24:44;;;;;;;2.55;2.33;;;;;;;;;;5118667;27;20318;-93
2023/09/17 12:27:24;;;;;;;3.10;2.90;;;;;;;;;;5115308;27;20203;-92
2023/09/17 12:29:54;;;;;;;2.90;2.70;;;;;;;;;;5133898;27;20217;-93
2023/09/17 12:32:25;;;;;;;3.25;2.97;;;;;;;;;;5138279;27;20183;-91
2023/09/17 12:34:54;;;;;;;3.03;2.78;;;;;;;;;;5138154;27;20230;-92
2023/09/17 12:37:22;;;;;;;3.20;3.00;;;;;;;;;;5138132;27;20190;-91
2023/09/17 12:39:50;;;;;;;2.72;2.53;;;;;;;;;;5138000;27;20203;-91
2023/09/17 12:42:18;;;;;;;2.67;2.50;;;;;;;;;;5138157;27;20189;-93
2023/09/17 12:44:45;;;;;;;2.38;2.28;;;;;;;;;;5137941;27;20207;-92
2023/09/17 12:47:15;;;;;;;2.80;2.60;;;;;;;;;;5138164;28;20184;-92
2023/09/17 12:49:43;;;;;;;3.17;2.97;;;;;;;;;;5137968;27;20208;-93
2023/09/17 12:52:13;;;;;;;2.90;2.70;;;;;;;;;;5137872;27;20188;-93
2023/09/17 12:54:40;;;;;;;2.70;2.50;;;;;;;;;;5138032;28;20176;-92
2023/09/17 12:57:08;;;;;;;3.25;2.80;;;;;;;;;;5137971;28;20179;-92
2023/09/17 12:59:38;;;;;;;3.10;2.40;;;;;;;;;;5137752;28;20199;-93
2023/09/17 13:02:07;;;;;;;3.13;2.90;;;;;;;;;;5138034;28;20252;-92
2023/09/17 13:04:41;;;;;;;2.90;2.45;;;;;;;;;;5137873;28;20220;-93
2023/09/17 13:07:16;;;;;;;2.75;2.35;;;;;;;;;;5138150;28;20187;-93
2023/09/17 13:09:44;;;;;;;2.50;2.30;;;;;;;;;;5137874;28;20207;-93
2023/09/17 13:12:12;;;;;;;5.70;2.30;;;;;;;;;;5137826;28;20184;-92
2023/09/17 13:14:40;;;;;;;3.33;2.90;;;;;;;;;;5137775;28;20195;-92
2023/09/17 13:17:08;;;;;;;2.38;2.28;;;;;;;;;;5137896;28;20180;-92
2023/09/17 13:19:36;;;;;;;3.05;2.05;;;;;;;;;;5137734;28;20203;-93
2023/09/17 13:22:05;;;;;;;2.28;2.17;;;;;;;;;;5137474;28;20200;-91
2023/09/17 13:24:34;;;;;;;1.92;1.83;;;;;;;;;;5137686;28;20221;-91
2023/09/17 13:27:03;;;;;;;2.25;2.15;;;;;;;;;;5137683;27;20188;-94
2023/09/17 13:29:38;;;;;;;3.00;1.92;;;;;;;;;;5138620;27;20263;-91
2023/09/17 13:32:10;;;;;;;2.10;2.00;;;;;;;;;;5141495;27;20195;-93
2023/09/17 13:34:39;;;;;;;3.17;2.47;;;;;;;;;;5141309;27;20268;-94
2023/09/17 13:37:08;;;;;;;3.03;2.38;;;;;;;;;;5141365;27;20188;-92
2023/09/17 13:39:38;;;;;;;2.55;2.35;;;;;;;;;;5141019;27;20212;-92
2023/09/17 13:42:07;;;;;;;1.90;1.80;;;;;;;;;;5141263;27;20188;-93
2023/09/17 13:44:34;;;;;;;2.70;2.10;;;;;;;;;;5141170;28;20234;-91
2023/09/17 13:47:02;;;;;;;1.60;1.50;;;;;;;;;;5141291;28;20218;-92
2023/09/17 13:49:30;;;;;;;2.20;2.10;;;;;;;;;;5140769;27;20242;-92
2023/09/17 13:51:57;;;;;;;1.95;1.75;;;;;;;;;;5140946;27;20218;-91
2023/09/17 13:54:26;;;;;;;2.30;1.65;;;;;;;;;;5132407;28;20290;-92
2023/09/17 13:56:54;;;;;;;2.03;1.92;;;;;;;;;;5140954;28;20188;-91
2023/09/17 13:59:21;;;;;;;2.05;1.67;;;;;;;;;;5140633;28;20199;-93
2023/09/17 14:01:49;;;;;;;3.63;2.10;;;;;;;;;;5140894;28;20180;-91
2023/09/17 14:04:16;;;;;;;1.73;1.63;;;;;;;;;;5140629;28;20227;-92
2023/09/17 14:06:44;;;;;;;1.70;1.60;;;;;;;;;;5141031;28;20184;-91
2023/09/17 14:09:11;;;;;;;1.70;1.60;;;;;;;;;;5140516;28;20223;-94
2023/09/17 14:11:40;;;;;;;2.50;2.30;;;;;;;;;;5140566;28;20213;-93
2023/09/17 14:14:08;;;;;;;1.80;1.55;;;;;;;;;;5140423;28;20187;-92
2023/09/17 14:16:36;;;;;;;3.10;2.38;;;;;;;;;;5140579;28;20218;-91
2023/09/17 14:19:05;;;;;;;1.98;1.88;;;;;;;;;;5140165;28;20238;-92
2023/09/17 14:21:37;;;;;;;1.65;1.55;;;;;;;;;;5140025;27;20190;-92
2023/09/17 14:24:05;;;;;;;2.10;2.00;;;;;;;;;;5140346;28;20602;-91
2023/09/17 14:26:33;;;;;;;1.95;1.70;;;;;;;;;;5139922;27;20184;-93
2023/09/17 14:29:02;;;;;;;2.13;1.92;;;;;;;;;;5140066;27;20215;-91
2023/09/17 14:31:29;;;;;;;1.73;1.63;;;;;;;;;;5140234;28;20213;-92
2023/09/17 14:33:57;;;;;;;1.80;1.70;;;;;;;;;;5140417;28;20192;-92
2023/09/17 14:36:24;;;;;;;2.05;1.85;;;;;;;;;;5140102;27;20200;-92
2023/09/17 14:38:52;;;;;;;2.33;2.13;;;;;;;;;;5139761;27;20223;-92
2023/09/17 14:41:20;;;;;;;2.03;1.75;;;;;;;;;;5139997;28;20184;-92
2023/09/17 14:43:47;;;;;;;2.42;2.22;;;;;;;;;;5140028;27;20195;-92
2023/09/17 14:46:16;;;;;;;1.75;1.60;;;;;;;;;;5139823;28;20222;-92
2023/09/17 14:48:44;;;;;;;1.60;1.50;;;;;;;;;;5139685;27;20207;-92
2023/09/17 14:51:11;;;;;;;1.65;1.55;;;;;;;;;;5139610;27;20191;-92